Time;durP1;ratioP1;P1;durP2;ratioP2;P2;SDS_P1;SDS_P2;PMS_P1;PMS_P2;Temp;Humidity;BMP_temperature;BMP_pressure;BME280_temperature;BME280_humidity;BME280_pressure;Samples;Min_cycle;Max_cycle;Signal;HPM_P1;HPM_P2
2021/04/11 00:01:30;;;;;;;28.03;21.70;;;8.90;99.90;;;;;;5068792;28;20243;-72
2021/04/11 00:03:56;;;;;;;25.97;21.30;;;8.80;99.90;;;;;;5068756;28;20218;-73
2021/04/11 00:06:23;;;;;;;23.83;21.13;;;8.80;99.90;;;;;;5068720;28;20279;-73
2021/04/11 00:08:49;;;;;;;25.40;21.67;;;8.80;99.90;;;;;;5068397;28;20204;-73
2021/04/11 00:11:15;;;;;;;24.90;22.03;;;8.80;99.90;;;;;;5068698;28;20222;-73
2021/04/11 00:13:41;;;;;;;25.77;21.73;;;8.80;99.90;;;;;;5068637;28;20208;-73
2021/04/11 00:16:08;;;;;;;23.57;21.13;;;8.80;99.90;;;;;;5068305;28;20231;-73
2021/04/11 00:18:34;;;;;;;24.03;21.37;;;8.80;99.90;;;;;;5068728;28;20230;-73
2021/04/11 00:21:03;;;;;;;26.40;22.20;;;8.80;99.90;;;;;;5068456;28;20284;-73
2021/04/11 00:23:30;;;;;;;26.17;21.30;;;8.80;99.90;;;;;;5068591;28;20258;-72
2021/04/11 00:25:57;;;;;;;28.93;22.70;;;8.80;99.90;;;;;;5068693;28;20203;-75
2021/04/11 00:28:23;;;;;;;26.47;22.27;;;8.80;99.90;;;;;;5068487;28;20348;-74
2021/04/11 00:30:49;;;;;;;25.40;22.20;;;8.80;99.90;;;;;;5068541;28;20211;-74
2021/04/11 00:33:26;;;;;;;27.50;22.60;;;8.80;99.90;;;;;;5068522;28;20260;-73
2021/04/11 00:35:54;;;;;;;26.37;22.13;;;8.70;99.90;;;;;;5068603;28;20213;-73
2021/04/11 00:38:20;;;;;;;29.70;23.20;;;8.70;99.90;;;;;;5068415;28;20215;-73
2021/04/11 00:40:47;;;;;;;25.57;22.53;;;8.70;99.90;;;;;;5068583;28;20207;-73
2021/04/11 00:43:17;;;;;;;24.70;22.03;;;8.70;99.90;;;;;;5067834;28;20253;-73
2021/04/11 00:45:52;;;;;;;25.93;22.43;;;8.70;99.90;;;;;;5068512;28;20211;-73
2021/04/11 00:48:20;;;;;;;26.33;21.87;;;8.70;99.90;;;;;;5067930;28;20648;-74
2021/04/11 00:50:51;;;;;;;26.67;23.60;;;8.60;99.90;;;;;;5068273;28;20245;-74
2021/04/11 00:53:17;;;;;;;25.87;23.03;;;8.60;99.90;;;;;;5068138;28;20195;-74
2021/04/11 00:55:43;;;;;;;26.93;23.33;;;8.70;99.90;;;;;;5068081;28;20204;-74
2021/04/11 00:58:11;;;;;;;28.07;23.57;;;8.60;99.90;;;;;;5068214;28;20211;-75
2021/04/11 01:00:38;;;;;;;26.57;23.70;;;8.60;99.90;;;;;;5068107;28;20203;-74
2021/04/11 01:03:05;;;;;;;26.80;23.97;;;8.60;99.90;;;;;;5067899;28;20682;-75
2021/04/11 01:05:35;;;;;;;28.33;23.30;;;8.60;99.90;;;;;;5068266;28;20251;-74
2021/04/11 01:08:10;;;;;;;27.10;23.93;;;8.60;99.90;;;;;;5067881;28;20288;-75
2021/04/11 01:10:40;;;;;;;29.03;24.67;;;8.60;99.90;;;;;;5072051;28;20556;-75
2021/04/11 01:13:06;;;;;;;27.13;24.27;;;8.60;99.90;;;;;;5072174;28;20560;-73
2021/04/11 01:15:35;;;;;;;27.67;24.73;;;8.60;99.90;;;;;;5071408;28;20235;-73
2021/04/11 01:18:02;;;;;;;28.33;24.90;;;8.60;99.90;;;;;;5072107;28;20206;-73
2021/04/11 01:20:31;;;;;;;28.03;24.50;;;8.60;99.90;;;;;;5071515;28;20787;-73
2021/04/11 01:23:07;;;;;;;27.77;24.60;;;8.60;99.90;;;;;;5071983;28;20203;-73
2021/04/11 01:25:36;;;;;;;28.90;24.90;;;8.60;99.90;;;;;;5071906;28;20195;-72
2021/04/11 01:28:07;;;;;;;28.60;25.53;;;8.50;99.90;;;;;;5071685;28;20230;-73
2021/04/11 01:30:36;;;;;;;28.97;25.87;;;8.60;99.90;;;;;;5071353;28;20196;-73
2021/04/11 01:33:03;;;;;;;30.43;26.27;;;8.50;99.90;;;;;;5071740;28;20246;-73
2021/04/11 01:35:30;;;;;;;30.20;26.13;;;8.50;99.90;;;;;;5071608;28;20246;-73
2021/04/11 01:37:57;;;;;;;30.47;27.13;;;8.60;99.90;;;;;;5071666;28;20211;-73
2021/04/11 01:40:31;;;;;;;31.73;26.63;;;8.50;99.90;;;;;;5071387;28;20278;-73
2021/04/11 01:42:59;;;;;;;29.63;26.17;;;8.60;99.90;;;;;;5071553;28;20206;-73
2021/04/11 01:45:28;;;;;;;30.57;27.33;;;8.60;99.90;;;;;;5071391;28;20211;-74
2021/04/11 01:47:54;;;;;;;35.37;28.30;;;8.50;99.90;;;;;;5071333;28;20712;-74
2021/04/11 01:50:20;;;;;;;30.67;26.67;;;8.50;99.90;;;;;;5071020;28;20691;-75
2021/04/11 01:52:47;;;;;;;34.13;27.17;;;8.50;99.90;;;;;;5071218;28;20207;-74
2021/04/11 01:55:14;;;;;;;30.23;26.43;;;8.50;99.90;;;;;;5071283;28;20658;-74
2021/04/11 01:57:41;;;;;;;31.10;27.60;;;8.50;99.90;;;;;;5070751;28;21080;-73
2021/04/11 02:00:17;;;;;;;33.43;29.10;;;8.50;99.90;;;;;;5071111;28;20230;-73
2021/04/11 02:02:43;;;;;;;32.00;28.47;;;8.50;99.90;;;;;;5071138;28;20218;-73
2021/04/11 02:05:13;;;;;;;31.97;28.43;;;8.50;99.90;;;;;;5071315;28;20218;-73
2021/04/11 02:07:39;;;;;;;31.27;27.70;;;8.50;99.90;;;;;;5070889;28;20274;-73
2021/04/11 02:10:07;;;;;;;34.97;28.73;;;8.50;99.90;;;;;;5071124;28;20207;-72
2021/04/11 02:12:35;;;;;;;32.47;28.87;;;8.50;99.90;;;;;;5070793;28;20247;-73
2021/04/11 02:15:01;;;;;;;32.57;28.63;;;8.50;99.90;;;;;;5070738;28;20235;-73
2021/04/11 02:17:28;;;;;;;32.40;28.10;;;8.50;99.90;;;;;;5070905;28;20593;-73
2021/04/11 02:19:54;;;;;;;33.13;29.30;;;8.40;99.90;;;;;;5070588;28;20732;-73
2021/04/11 02:22:26;;;;;;;34.40;28.73;;;8.50;99.90;;;;;;5070683;28;20231;-72
2021/04/11 02:24:52;;;;;;;36.17;30.20;;;8.50;99.90;;;;;;5070878;28;20196;-73
2021/04/11 02:27:21;;;;;;;34.90;29.33;;;8.50;99.90;;;;;;5070369;28;20232;-73
2021/04/11 02:29:48;;;;;;;32.50;28.97;;;8.50;99.90;;;;;;5070754;28;20211;-73
2021/04/11 02:32:14;;;;;;;33.43;29.07;;;8.50;99.90;;;;;;5070560;28;20207;-73
2021/04/11 02:34:43;;;;;;;33.63;29.73;;;8.50;99.90;;;;;;5070544;28;20582;-73
2021/04/11 02:37:14;;;;;;;34.07;29.73;;;8.40;99.90;;;;;;5070493;28;20203;-72
2021/04/11 02:39:42;;;;;;;36.27;30.63;;;8.40;99.90;;;;;;5070147;28;20192;-73
2021/04/11 02:42:13;;;;;;;34.47;30.07;;;8.40;99.90;;;;;;5070373;28;20250;-76
2021/04/11 02:44:41;;;;;;;35.20;30.13;;;8.50;99.90;;;;;;5070295;28;20231;-76
2021/04/11 02:47:09;;;;;;;33.63;30.03;;;8.40;99.90;;;;;;5070136;28;20609;-76
2021/04/11 02:49:35;;;;;;;34.97;30.73;;;8.40;99.90;;;;;;5070233;28;20204;-76
2021/04/11 02:52:06;;;;;;;33.67;29.90;;;8.40;99.90;;;;;;5071554;28;20199;-75
2021/04/11 02:54:32;;;;;;;33.20;29.47;;;8.50;99.90;;;;;;5071680;28;20670;-75
2021/04/11 02:56:59;;;;;;;35.00;30.23;;;8.50;99.90;;;;;;5076277;28;20206;-75
2021/04/11 02:59:26;;;;;;;34.57;29.17;;;8.50;99.90;;;;;;5090452;28;20218;-75
2021/04/11 03:01:54;;;;;;;35.70;30.57;;;8.50;99.90;;;;;;5090134;28;20669;-75
2021/04/11 03:04:22;;;;;;;37.97;31.47;;;8.50;99.90;;;;;;5090141;28;20209;-75
2021/04/11 03:06:54;;;;;;;35.53;30.53;;;8.50;99.90;;;;;;5090291;28;20253;-74
2021/04/11 03:09:25;;;;;;;33.70;30.10;;;8.50;99.90;;;;;;5072533;28;20261;-74
2021/04/11 03:11:53;;;;;;;37.20;31.33;;;8.50;99.90;;;;;;5069868;28;20272;-75
2021/04/11 03:14:23;;;;;;;35.90;31.23;;;8.50;99.90;;;;;;5069403;28;20730;-74
2021/04/11 03:16:49;;;;;;;36.17;30.87;;;8.50;99.90;;;;;;5069192;28;20625;-73
2021/04/11 03:19:20;;;;;;;36.67;31.73;;;8.50;99.90;;;;;;5069734;28;20211;-73
2021/04/11 03:21:46;;;;;;;36.30;31.23;;;8.50;99.90;;;;;;5072804;28;20239;-73
2021/04/11 03:24:12;;;;;;;39.03;31.87;;;8.50;99.90;;;;;;5089879;28;20288;-73
2021/04/11 03:26:42;;;;;;;38.20;31.13;;;8.50;99.90;;;;;;5089432;28;20256;-74
2021/04/11 03:29:14;;;;;;;37.53;32.07;;;8.50;99.90;;;;;;5089913;28;20717;-74
2021/04/11 03:31:46;;;;;;;39.37;31.27;;;8.50;99.90;;;;;;5089026;28;20280;-73
2021/04/11 03:34:15;;;;;;;36.40;30.40;;;8.50;99.90;;;;;;5089432;28;20237;-74
2021/04/11 03:36:42;;;;;;;37.17;31.00;;;8.40;99.90;;;;;;5089472;28;20238;-73
2021/04/11 03:39:11;;;;;;;38.83;31.73;;;8.50;99.90;;;;;;5089496;28;20260;-75
2021/04/11 03:41:40;;;;;;;40.63;32.93;;;8.50;99.90;;;;;;5089025;28;20541;-75
2021/04/11 03:44:10;;;;;;;37.33;31.27;;;8.50;99.90;;;;;;5089198;28;20669;-75
2021/04/11 03:46:42;;;;;;;40.47;31.83;;;8.50;99.90;;;;;;5089267;28;20215;-74
2021/04/11 03:49:17;;;;;;;35.20;31.20;;;8.50;99.90;;;;;;5089522;28;20222;-74
2021/04/11 03:51:46;;;;;;;37.70;31.50;;;8.40;99.90;;;;;;5089182;28;20195;-74
2021/04/11 03:54:16;;;;;;;38.70;31.83;;;8.50;99.90;;;;;;5089200;28;20206;-74
2021/04/11 03:56:46;;;;;;;39.87;32.13;;;8.50;99.90;;;;;;5089218;28;20261;-76
2021/04/11 03:59:17;;;;;;;37.00;31.73;;;8.50;99.90;;;;;;5089060;28;20223;-75
2021/04/11 04:01:47;;;;;;;36.80;31.67;;;8.50;99.90;;;;;;5088813;28;20226;-75
2021/04/11 04:04:17;;;;;;;37.73;32.10;;;8.50;99.90;;;;;;5089259;28;20195;-75
2021/04/11 04:07:04;;;;;;;35.80;30.90;;;8.50;99.90;;;;;;5088955;28;20268;-75
2021/04/11 04:09:30;;;;;;;38.00;32.20;;;8.50;99.90;;;;;;5088736;28;20567;-76
2021/04/11 04:12:13;;;;;;;39.03;32.20;;;8.40;99.90;;;;;;5088875;28;20661;-76
2021/04/11 04:14:52;;;;;;;36.73;30.87;;;8.40;99.90;;;;;;5089174;28;20230;-76
2021/04/11 04:17:27;;;;;;;38.67;32.30;;;8.40;99.90;;;;;;5089266;28;20244;-76
2021/04/11 04:20:04;;;;;;;36.67;31.60;;;8.40;99.90;;;;;;5089172;28;20255;-76
2021/04/11 04:22:41;;;;;;;36.80;31.67;;;8.40;99.90;;;;;;5088904;28;20236;-76
2021/04/11 04:25:14;;;;;;;38.90;32.20;;;8.50;99.90;;;;;;5088880;28;20191;-76
2021/04/11 04:28:02;;;;;;;38.80;33.60;;;8.40;99.90;;;;;;5088321;28;20269;-76
2021/04/11 04:30:35;;;;;;;42.00;33.33;;;8.40;99.90;;;;;;5088425;28;20650;-75
2021/04/11 04:33:21;;;;;;;40.27;33.13;;;8.50;99.90;;;;;;5088953;28;20195;-76
2021/04/11 04:35:54;;;;;;;40.00;31.87;;;8.40;99.90;;;;;;5088269;28;20200;-76
2021/04/11 04:38:24;;;;;;;40.27;32.87;;;8.50;99.90;;;;;;5088805;28;20203;-76
2021/04/11 04:41:07;;;;;;;38.30;32.43;;;8.30;99.90;;;;;;5088864;28;20202;-77
2021/04/11 04:43:45;;;;;;;44.43;33.93;;;8.40;99.90;;;;;;5087533;28;20602;-77
2021/04/11 04:46:15;;;;;;;39.60;33.50;;;8.40;99.90;;;;;;5088953;28;20195;-78
2021/04/11 04:48:48;;;;;;;40.03;33.23;;;8.40;99.90;;;;;;5088612;28;20262;-76
2021/04/11 04:51:21;;;;;;;36.90;32.80;;;8.40;99.90;;;;;;5088714;28;20195;-76
2021/04/11 04:53:56;;;;;;;39.07;32.67;;;8.40;99.90;;;;;;5088640;28;20537;-77
2021/04/11 04:56:30;;;;;;;41.83;34.83;;;8.40;99.90;;;;;;5088939;28;20272;-77
2021/04/11 04:59:07;;;;;;;40.93;33.03;;;8.40;99.90;;;;;;5088394;28;20195;-76
2021/04/11 05:01:37;;;;;;;40.83;33.97;;;8.50;99.90;;;;;;5088135;28;20203;-74
2021/04/11 05:04:09;;;;;;;40.07;32.70;;;8.50;99.90;;;;;;5088411;28;20194;-74
2021/04/11 05:06:39;;;;;;;39.17;32.60;;;8.50;99.90;;;;;;5088249;28;20191;-74
2021/04/11 05:09:12;;;;;;;37.27;33.17;;;8.50;99.90;;;;;;5088363;28;20195;-73
2021/04/11 05:11:44;;;;;;;40.00;32.17;;;8.50;99.90;;;;;;5088263;28;20220;-73
2021/04/11 05:14:14;;;;;;;40.80;33.60;;;8.50;99.90;;;;;;5087654;28;20277;-73
2021/04/11 05:16:45;;;;;;;36.87;31.83;;;8.50;99.90;;;;;;5088206;28;20219;-74
2021/04/11 05:19:16;;;;;;;40.27;33.03;;;8.50;99.90;;;;;;5088391;28;20202;-72
2021/04/11 05:21:48;;;;;;;40.30;32.27;;;8.50;99.90;;;;;;5088090;28;20252;-74
2021/04/11 05:24:18;;;;;;;41.40;32.27;;;8.50;99.90;;;;;;5087933;28;20721;-76
2021/04/11 05:26:47;;;;;;;37.83;32.00;;;8.50;99.90;;;;;;5087922;28;20229;-74
2021/04/11 05:29:21;;;;;;;38.50;32.63;;;8.50;99.90;;;;;;5087980;28;20218;-74
2021/04/11 05:31:49;;;;;;;43.47;32.07;;;8.50;99.90;;;;;;5088001;28;20216;-74
2021/04/11 05:34:18;;;;;;;39.60;32.60;;;8.50;99.90;;;;;;5088088;28;20231;-74
2021/04/11 05:36:55;;;;;;;40.37;33.33;;;8.50;99.90;;;;;;5088004;28;20347;-75
2021/04/11 05:39:28;;;;;;;39.60;32.07;;;8.50;99.90;;;;;;5087656;28;20199;-75
2021/04/11 05:42:02;;;;;;;39.23;32.33;;;8.50;99.90;;;;;;5087957;28;20195;-75
2021/04/11 05:44:36;;;;;;;38.37;31.50;;;8.50;99.90;;;;;;5087905;28;20242;-75
2021/04/11 05:47:09;;;;;;;42.43;33.37;;;8.50;99.90;;;;;;5087932;28;20276;-74
2021/04/11 05:49:45;;;;;;;38.80;31.80;;;8.50;99.90;;;;;;5087822;28;20309;-74
2021/04/11 05:52:16;;;;;;;40.27;33.50;;;8.50;99.90;;;;;;5087908;28;20194;-74
2021/04/11 05:54:46;;;;;;;39.60;32.23;;;8.50;99.90;;;;;;5088544;28;20195;-74
2021/04/11 05:57:18;;;;;;;38.47;31.60;;;8.60;99.90;;;;;;5091346;28;20198;-74
2021/04/11 05:59:49;;;;;;;36.90;31.73;;;8.60;99.90;;;;;;5091353;28;20191;-74
2021/04/11 06:02:21;;;;;;;40.17;31.60;;;8.60;99.90;;;;;;5091541;28;20567;-74
2021/04/11 06:04:52;;;;;;;37.90;32.37;;;8.60;99.90;;;;;;5091268;28;20198;-74
2021/04/11 06:07:23;;;;;;;37.67;31.40;;;8.60;99.90;;;;;;5091185;28;20226;-74
2021/04/11 06:09:54;;;;;;;37.83;30.97;;;8.60;99.90;;;;;;5091144;28;20199;-74
2021/04/11 06:12:30;;;;;;;38.40;31.53;;;8.60;99.90;;;;;;5091318;28;20242;-75
2021/04/11 06:15:00;;;;;;;39.13;31.93;;;8.70;99.90;;;;;;5090905;28;20289;-75
2021/04/11 06:17:29;;;;;;;35.73;30.97;;;8.70;99.90;;;;;;5091140;28;20191;-75
2021/04/11 06:19:55;;;;;;;40.20;32.33;;;8.80;99.90;;;;;;5091161;28;20207;-74
2021/04/11 06:22:29;;;;;;;40.73;31.70;;;8.80;99.90;;;;;;5092199;28;20199;-75
2021/04/11 06:25:02;;;;;;;38.27;32.10;;;8.90;99.90;;;;;;5090943;28;20200;-74
2021/04/11 06:27:43;;;;;;;37.33;31.67;;;8.90;99.90;;;;;;5090346;28;20230;-74
2021/04/11 06:30:14;;;;;;;35.77;31.00;;;9.00;99.90;;;;;;5091071;28;20198;-73
2021/04/11 06:32:45;;;;;;;39.30;32.47;;;9.00;99.90;;;;;;5090630;28;20260;-73
2021/04/11 06:35:14;;;;;;;40.17;32.03;;;8.90;99.90;;;;;;5085834;28;20195;-74
2021/04/11 06:37:43;;;;;;;39.53;32.03;;;8.90;99.90;;;;;;5081632;28;20223;-76
2021/04/11 06:40:20;;;;;;;34.80;30.20;;;8.90;99.90;;;;;;5075132;28;20206;-75
2021/04/11 06:43:03;;;;;;;39.37;32.17;;;8.90;99.90;;;;;;5083112;28;20693;-75
2021/04/11 06:45:34;;;;;;;38.80;31.60;;;8.80;99.90;;;;;;5080221;28;20195;-75
2021/04/11 06:48:40;;;;;;;40.33;32.83;;;8.80;99.90;;;;;;5079169;28;20227;-76
2021/04/11 06:51:34;;;;;;;36.50;31.77;;;8.90;99.90;;;;;;5081199;28;20207;-76
2021/04/11 06:54:25;;;;;;;38.10;31.60;;;8.90;99.90;;;;;;5082180;28;20536;-77
2021/04/11 06:57:06;;;;;;;39.93;31.23;;;8.90;99.90;;;;;;5077495;28;20191;-76
2021/04/11 06:59:50;;;;;;;40.20;32.30;;;8.80;99.90;;;;;;5080960;28;20198;-76
2021/04/11 07:02:58;;;;;;;35.00;30.50;;;8.90;99.90;;;;;;5081184;28;20195;-77
2021/04/11 07:05:44;;;;;;;38.30;30.27;;;8.90;99.90;;;;;;5078856;28;20199;-76
2021/04/11 07:08:50;;;;;;;37.10;29.50;;;9.00;99.90;;;;;;5080547;28;20225;-76
2021/04/11 07:11:53;;;;;;;35.63;30.30;;;9.00;99.90;;;;;;5077962;28;20198;-76
2021/04/11 07:15:00;;;;;;;37.07;30.40;;;9.10;99.90;;;;;;5080888;28;20234;-76
2021/04/11 07:17:50;;;;;;;36.40;30.10;;;9.10;99.90;;;;;;5081412;28;20203;-76
2021/04/11 07:20:35;;;;;;;36.60;29.20;;;9.20;99.90;;;;;;5090009;28;20233;-77
2021/04/11 07:23:32;;;;;;;34.47;29.77;;;9.20;99.90;;;;;;5090046;28;20191;-76
2021/04/11 07:26:22;;;;;;;37.37;29.93;;;9.20;99.90;;;;;;5080217;28;20192;-77
2021/04/11 07:29:00;;;;;;;35.33;29.73;;;9.30;99.90;;;;;;5076828;28;20262;-76
2021/04/11 07:32:06;;;;;;;37.63;29.73;;;9.40;99.90;;;;;;5085909;28;20199;-76
2021/04/11 07:34:58;;;;;;;34.53;27.50;;;9.40;99.90;;;;;;5022603;28;20204;-77
2021/04/11 07:37:34;;;;;;;36.07;29.50;;;9.50;99.90;;;;;;5081525;28;20259;-76
2021/04/11 07:40:16;;;;;;;32.57;28.13;;;9.50;99.90;;;;;;5086003;28;20217;-76
2021/04/11 07:43:05;;;;;;;33.10;27.80;;;9.50;99.90;;;;;;5085749;28;20198;-76
2021/04/11 07:45:50;;;;;;;33.73;28.30;;;9.60;99.90;;;;;;5082550;28;20202;-76
2021/04/11 07:48:27;;;;;;;32.47;27.63;;;9.70;99.90;;;;;;5085456;28;20283;-76
2021/04/11 07:51:21;;;;;;;31.47;27.40;;;9.80;99.90;;;;;;5085364;28;20218;-76
2021/04/11 07:54:23;;;;;;;32.33;27.27;;;9.80;99.90;;;;;;5079108;28;20234;-76
2021/04/11 07:57:14;;;;;;;33.17;27.67;;;9.90;99.90;;;;;;5063176;28;20657;-77
2021/04/11 08:00:18;;;;;;;32.23;27.03;;;10.00;99.90;;;;;;5085895;28;20253;-77
2021/04/11 08:03:19;;;;;;;29.23;25.80;;;10.10;99.90;;;;;;5002624;28;20655;-76
2021/04/11 08:06:04;;;;;;;30.07;26.17;;;10.20;99.90;;;;;;5022377;28;20297;-80
2021/04/11 08:08:44;;;;;;;31.20;26.90;;;10.20;99.90;;;;;;5080331;28;20647;-77
2021/04/11 08:11:47;;;;;;;30.33;25.33;;;10.30;99.90;;;;;;5085107;28;20660;-76
2021/04/11 08:14:27;;;;;;;28.70;23.97;;;10.40;99.90;;;;;;5084603;28;20230;-76
2021/04/11 08:17:01;;;;;;;29.47;25.33;;;10.40;99.90;;;;;;5084770;28;20272;-76
2021/04/11 08:19:49;;;;;;;28.70;24.27;;;10.50;99.90;;;;;;5085226;28;20595;-76
2021/04/11 08:22:37;;;;;;;28.13;23.90;;;10.50;99.90;;;;;;5085748;28;20206;-77
2021/04/11 08:25:15;;;;;;;28.53;24.30;;;10.60;99.90;;;;;;5085061;28;20203;-76
2021/04/11 08:28:16;;;;;;;25.90;22.70;;;10.70;99.90;;;;;;5084822;28;20508;-77
2021/04/11 08:31:07;;;;;;;26.63;22.67;;;10.70;99.90;;;;;;5080001;28;20577;-77
2021/04/11 08:34:11;;;;;;;28.17;22.43;;;10.70;99.90;;;;;;5084574;28;20230;-77
2021/04/11 08:37:19;;;;;;;27.67;22.27;;;10.80;99.90;;;;;;5085337;28;20217;-77
2021/04/11 08:39:55;;;;;;;25.63;22.40;;;10.80;99.90;;;;;;5051973;28;20218;-78
2021/04/11 08:42:40;;;;;;;23.40;20.63;;;10.80;99.90;;;;;;5079101;28;20194;-77
2021/04/11 08:45:29;;;;;;;27.83;21.53;;;10.80;99.90;;;;;;5075288;28;20249;-77
2021/04/11 08:48:11;;;;;;;25.00;20.77;;;10.80;99.90;;;;;;5068333;28;20254;-77
2021/04/11 08:50:45;;;;;;;22.63;20.33;;;10.90;99.90;;;;;;5074721;28;20202;-77
2021/04/11 08:53:26;;;;;;;22.33;19.70;;;10.90;99.90;;;;;;5073615;28;20227;-74
2021/04/11 08:55:59;;;;;;;20.70;17.20;;;10.90;99.90;;;;;;5079087;28;20226;-76
2021/04/11 08:58:33;;;;;;;22.93;20.17;;;11.00;99.90;;;;;;5080697;28;20576;-77
2021/04/11 09:01:09;;;;;;;21.93;19.53;;;11.10;99.90;;;;;;5077415;28;20596;-77
2021/04/11 09:03:46;;;;;;;21.40;18.43;;;11.20;99.90;;;;;;5072789;28;20206;-77
2021/04/11 09:06:22;;;;;;;23.40;18.50;;;11.20;99.90;;;;;;5067915;28;20219;-77
2021/04/11 09:09:00;;;;;;;22.90;18.80;;;11.20;99.90;;;;;;5066834;28;20652;-78
2021/04/11 09:11:32;;;;;;;22.10;18.63;;;11.20;99.90;;;;;;5064320;28;20628;-77
2021/04/11 09:14:22;;;;;;;21.57;18.80;;;11.30;99.90;;;;;;5064096;28;20214;-78
2021/04/11 09:17:01;;;;;;;21.77;18.27;;;11.40;99.90;;;;;;5081043;28;20215;-77
2021/04/11 09:19:32;;;;;;;20.57;17.23;;;11.60;99.90;;;;;;5077094;28;20237;-77
2021/04/11 09:22:19;;;;;;;20.50;18.37;;;11.70;99.90;;;;;;5076754;28;20216;-77
2021/04/11 09:24:49;;;;;;;22.23;17.90;;;11.90;99.90;;;;;;5075172;28;20198;-78
2021/04/11 09:27:52;;;;;;;19.40;17.37;;;12.10;99.90;;;;;;5079043;28;20256;-77
2021/04/11 09:30:55;;;;;;;19.73;17.37;;;12.30;99.90;;;;;;5078898;28;20190;-79
2021/04/11 09:33:39;;;;;;;19.73;16.20;;;12.40;99.90;;;;;;5061703;28;20214;-77
2021/04/11 09:36:14;;;;;;;22.63;17.47;;;12.50;99.90;;;;;;5085285;28;20195;-77
2021/04/11 09:39:25;;;;;;;18.67;16.00;;;12.50;99.90;;;;;;5078894;28;20194;-77
2021/04/11 09:42:12;;;;;;;18.03;16.10;;;12.50;99.90;;;;;;5082583;28;20200;-77
2021/04/11 09:44:59;;;;;;;24.40;15.80;;;12.50;99.90;;;;;;5081827;28;20255;-77
2021/04/11 09:47:54;;;;;;;18.33;15.80;;;12.50;99.90;;;;;;5081509;28;20219;-77
2021/04/11 09:50:29;;;;;;;18.20;16.30;;;12.50;99.90;;;;;;5078888;28;20191;-77
2021/04/11 09:53:22;;;;;;;18.83;15.90;;;12.60;99.90;;;;;;5079559;28;20187;-77
2021/04/11 09:55:56;;;;;;;15.23;13.60;;;12.60;99.90;;;;;;5080150;28;20623;-75
2021/04/11 09:58:36;;;;;;;16.77;15.17;;;12.60;99.90;;;;;;5080697;28;20202;-77
2021/04/11 10:01:15;;;;;;;17.30;15.47;;;12.60;99.90;;;;;;5072860;28;20199;-77
2021/04/11 10:04:07;;;;;;;16.47;14.77;;;12.60;99.90;;;;;;5077228;28;20230;-78
2021/04/11 10:06:48;;;;;;;17.87;14.67;;;12.60;99.90;;;;;;5076249;28;20212;-77
2021/04/11 10:09:34;;;;;;;18.73;14.57;;;12.60;99.90;;;;;;5081871;28;20215;-77
2021/04/11 10:12:17;;;;;;;15.13;13.40;;;12.60;99.90;;;;;;5080666;28;20214;-78
2021/04/11 10:15:01;;;;;;;17.57;14.10;;;12.60;99.90;;;;;;5075396;28;20234;-77
2021/04/11 10:17:39;;;;;;;14.70;13.17;;;12.60;99.90;;;;;;5080827;28;20620;-77
2021/04/11 10:20:12;;;;;;;14.97;13.47;;;12.70;99.90;;;;;;5081136;28;20226;-77
2021/04/11 10:22:45;;;;;;;14.77;13.20;;;12.80;99.90;;;;;;5076891;28;20204;-77
2021/04/11 10:25:33;;;;;;;14.50;12.87;;;13.00;99.90;;;;;;5076059;28;20813;-77
2021/04/11 10:28:09;;;;;;;13.80;12.27;;;13.20;99.90;;;;;;5079713;28;20242;-77
2021/04/11 10:30:36;;;;;;;15.43;13.43;;;13.40;99.90;;;;;;5079127;28;20188;-79
2021/04/11 10:33:10;;;;;;;15.23;12.40;;;13.50;99.90;;;;;;5079071;28;20204;-79
2021/04/11 10:35:43;;;;;;;14.33;12.60;;;13.70;99.90;;;;;;5070519;28;20647;-78
2021/04/11 10:38:15;;;;;;;14.87;12.30;;;13.80;99.90;;;;;;5078622;28;20200;-78
2021/04/11 10:41:08;;;;;;;14.43;11.63;;;13.90;99.90;;;;;;5078167;28;20187;-79
2021/04/11 10:43:49;;;;;;;12.87;11.67;;;14.10;99.90;;;;;;5080366;28;20192;-79
2021/04/11 10:46:21;;;;;;;14.67;11.57;;;14.20;99.90;;;;;;5085592;28;20191;-85
2021/04/11 10:49:04;;;;;;;12.47;11.17;;;14.40;99.90;;;;;;5084100;28;20912;-83
2021/04/11 10:52:03;;;;;;;14.03;11.27;;;14.50;99.90;;;;;;5080057;28;20188;-79
2021/04/11 10:55:11;;;;;;;13.63;11.00;;;14.70;99.90;;;;;;5075422;28;20265;-78
2021/04/11 10:58:18;;;;;;;11.97;10.67;;;14.80;99.90;;;;;;5068779;28;20241;-79
2021/04/11 11:01:00;;;;;;;12.27;10.47;;;15.00;99.90;;;;;;5070044;28;20245;-79
2021/04/11 11:03:52;;;;;;;12.73;10.97;;;15.10;99.90;;;;;;5070078;28;20218;-78
2021/04/11 11:07:06;;;;;;;16.00;11.07;;;15.20;99.90;;;;;;5070087;28;20202;-78
2021/04/11 11:09:38;;;;;;;12.23;9.77;;;15.30;99.90;;;;;;5007382;28;20211;-79
2021/04/11 11:12:27;;;;;;;10.33;9.30;;;15.50;99.90;;;;;;5057062;28;20203;-78
2021/04/11 11:15:25;;;;;;;9.90;8.97;;;15.60;99.90;;;;;;5068794;28;20732;-78
2021/04/11 11:18:05;;;;;;;10.57;8.67;;;15.70;99.90;;;;;;5068632;28;20212;-79
2021/04/11 11:20:42;;;;;;;9.67;7.43;;;15.90;99.90;;;;;;5069781;28;20227;-78
2021/04/11 11:23:48;;;;;;;8.20;7.47;;;16.10;99.90;;;;;;5069901;28;20238;-79
2021/04/11 11:26:41;;;;;;;8.23;7.40;;;16.30;99.90;;;;;;5069818;28;20199;-79
2021/04/11 11:29:29;;;;;;;8.93;7.27;;;16.50;99.90;;;;;;5069764;28;20215;-79
2021/04/11 11:32:02;;;;;;;7.60;6.90;;;16.60;99.90;;;;;;5068457;28;20667;-79
2021/04/11 11:34:47;;;;;;;7.90;7.10;;;16.80;99.90;;;;;;5069737;28;20206;-79
2021/04/11 11:37:23;;;;;;;8.13;7.10;;;16.80;99.90;;;;;;5069934;28;20192;-79
2021/04/11 11:40:00;;;;;;;7.60;6.80;;;16.90;99.90;;;;;;5069600;28;20191;-79
2021/04/11 11:42:34;;;;;;;6.33;5.77;;;17.10;99.90;;;;;;5069563;28;20202;-79
2021/04/11 11:45:11;;;;;;;8.80;6.80;;;17.30;99.90;;;;;;5069262;28;20248;-79
2021/04/11 11:47:43;;;;;;;7.80;7.10;;;17.40;99.90;;;;;;5069322;28;20230;-79
2021/04/11 11:50:17;;;;;;;8.60;6.40;;;17.30;99.90;;;;;;5069411;28;20200;-79
2021/04/11 11:52:49;;;;;;;6.90;6.13;;;17.30;99.90;;;;;;5069106;28;20199;-79
2021/04/11 11:55:23;;;;;;;7.00;5.93;;;17.20;99.90;;;;;;5069400;28;20191;-79
2021/04/11 11:57:57;;;;;;;6.33;5.73;;;17.10;99.90;;;;;;5069295;28;20207;-79
2021/04/11 12:00:29;;;;;;;8.33;5.37;;;17.20;99.90;;;;;;5069034;28;20208;-79
2021/04/11 12:03:11;;;;;;;7.03;5.37;;;17.20;99.90;;;;;;5069149;28;20201;-79
2021/04/11 12:05:42;;;;;;;7.13;5.80;;;17.30;99.90;;;;;;5068739;28;20241;-79
2021/04/11 12:08:16;;;;;;;9.87;5.53;;;17.40;99.90;;;;;;5069144;28;20272;-79
2021/04/11 12:10:48;;;;;;;7.73;5.40;;;17.50;99.90;;;;;;5068702;28;20286;-80
2021/04/11 12:13:29;;;;;;;7.10;5.03;;;17.70;99.90;;;;;;5068897;28;20207;-80
2021/04/11 12:16:00;;;;;;;6.73;4.83;;;18.00;99.90;;;;;;5068335;28;20811;-80
2021/04/11 12:18:30;;;;;;;5.20;4.70;;;18.30;99.90;;;;;;5068973;28;20200;-80
2021/04/11 12:21:05;;;;;;;4.97;4.50;;;18.60;99.90;;;;;;5068931;28;20224;-80
2021/04/11 12:23:38;;;;;;;5.13;4.43;;;18.90;99.90;;;;;;5068882;28;20196;-80
2021/04/11 12:26:07;;;;;;;6.60;5.00;;;18.90;99.90;;;;;;5068811;28;20571;-80
2021/04/11 12:28:35;;;;;;;5.13;4.73;;;19.00;99.90;;;;;;5068799;28;20235;-80
2021/04/11 12:31:19;;;;;;;6.00;5.20;;;19.00;99.90;;;;;;5068757;28;20207;-80
2021/04/11 12:33:53;;;;;;;5.23;4.53;;;18.80;99.90;;;;;;5068591;28;20225;-80
2021/04/11 12:36:28;;;;;;;5.30;4.80;;;18.90;99.90;;;;;;5068485;28;20196;-80
2021/04/11 12:38:57;;;;;;;7.10;4.70;;;19.00;99.90;;;;;;5068568;28;20199;-81
2021/04/11 12:41:28;;;;;;;10.50;8.83;;;19.20;99.90;;;;;;5068803;28;20265;-80
2021/04/11 12:44:02;;;;;;;6.90;6.30;;;19.20;99.90;;;;;;5068249;28;20520;-80
2021/04/11 12:46:37;;;;;;;4.47;4.17;;;19.20;99.90;;;;;;5068535;28;20209;-81
2021/04/11 12:49:11;;;;;;;4.77;4.37;;;19.20;99.90;;;;;;5068597;28;20246;-81
2021/04/11 12:51:42;;;;;;;5.47;4.50;;;19.50;99.90;;;;;;5068638;28;20205;-81
2021/04/11 12:54:16;;;;;;;4.57;4.27;;;19.70;99.90;;;;;;5068514;28;20231;-81
2021/04/11 12:56:46;;;;;;;6.37;4.03;;;19.80;99.90;;;;;;5068360;28;20206;-81
2021/04/11 12:59:21;;;;;;;4.60;4.10;;;20.10;99.90;;;;;;5068571;28;20238;-80
2021/04/11 13:01:50;;;;;;;4.93;4.33;;;20.00;99.90;;;;;;5068330;28;20340;-80
2021/04/11 13:04:25;;;;;;;4.25;3.85;;;20.00;99.90;;;;;;5068911;28;20212;-81
2021/04/11 13:06:57;;;;;;;5.67;4.43;;;19.80;99.90;;;;;;5072072;28;20248;-80
2021/04/11 13:10:00;;;;;;;6.67;4.20;;;19.80;99.90;;;;;;5072687;28;20231;-80
2021/04/11 13:12:38;;;;;;;6.00;3.90;;;19.80;99.90;;;;;;5072343;28;20214;-80
2021/04/11 13:15:12;;;;;;;4.33;3.93;;;19.80;99.90;;;;;;5072403;28;20685;-80
2021/04/11 13:17:41;;;;;;;4.40;4.10;;;19.60;99.90;;;;;;5072417;28;20206;-80
2021/04/11 13:20:16;;;;;;;4.90;4.40;;;19.40;99.90;;;;;;5072051;28;20234;-80
2021/04/11 13:22:48;;;;;;;6.83;4.20;;;19.10;99.90;;;;;;5072131;28;20191;-80